sensor_id;sensor_type;location;lat;lon;timestamp;P1;durP1;ratioP1;P2;durP2;ratioP2
18166;SDS011;9208;42.688;23.404;2023-05-18T00:01:09;2.83;;;2.27;;
18166;SDS011;9208;42.688;23.404;2023-05-18T00:03:39;2.23;;;2.10;;
18166;SDS011;9208;42.688;23.404;2023-05-18T00:06:05;2.23;;;2.03;;
18166;SDS011;9208;42.688;23.404;2023-05-18T00:08:31;2.40;;;2.20;;
18166;SDS011;9208;42.688;23.404;2023-05-18T00:11:01;2.20;;;2.00;;
18166;SDS011;9208;42.688;23.404;2023-05-18T00:13:27;2.77;;;2.40;;
18166;SDS011;9208;42.688;23.404;2023-05-18T00:15:52;2.10;;;1.90;;
18166;SDS011;9208;42.688;23.404;2023-05-18T00:18:18;2.37;;;1.93;;
18166;SDS011;9208;42.688;23.404;2023-05-18T00:20:47;1.93;;;1.83;;
18166;SDS011;9208;42.688;23.404;2023-05-18T00:23:26;2.37;;;1.83;;
18166;SDS011;9208;42.688;23.404;2023-05-18T00:25:54;2.23;;;2.03;;
18166;SDS011;9208;42.688;23.404;2023-05-18T00:28:23;3.20;;;2.00;;
18166;SDS011;9208;42.688;23.404;2023-05-18T00:30:49;2.77;;;1.97;;
18166;SDS011;9208;42.688;23.404;2023-05-18T00:33:14;2.27;;;2.07;;
18166;SDS011;9208;42.688;23.404;2023-05-18T00:35:40;2.67;;;2.47;;
18166;SDS011;9208;42.688;23.404;2023-05-18T00:38:05;2.00;;;1.90;;
18166;SDS011;9208;42.688;23.404;2023-05-18T00:40:31;1.93;;;1.80;;
18166;SDS011;9208;42.688;23.404;2023-05-18T00:42:56;1.80;;;1.70;;
18166;SDS011;9208;42.688;23.404;2023-05-18T00:45:22;2.03;;;1.83;;
18166;SDS011;9208;42.688;23.404;2023-05-18T00:47:47;2.00;;;1.80;;
18166;SDS011;9208;42.688;23.404;2023-05-18T00:50:12;1.60;;;1.50;;
18166;SDS011;9208;42.688;23.404;2023-05-18T00:52:39;2.20;;;2.10;;
18166;SDS011;9208;42.688;23.404;2023-05-18T00:55:05;2.20;;;2.00;;
18166;SDS011;9208;42.688;23.404;2023-05-18T00:57:32;2.00;;;1.80;;
18166;SDS011;9208;42.688;23.404;2023-05-18T01:00:03;1.60;;;1.50;;
18166;SDS011;9208;42.688;23.404;2023-05-18T01:02:31;2.10;;;1.63;;
18166;SDS011;9208;42.688;23.404;2023-05-18T01:04:57;1.73;;;1.63;;
18166;SDS011;9208;42.688;23.404;2023-05-18T01:07:24;2.00;;;1.83;;
18166;SDS011;9208;42.688;23.404;2023-05-18T01:09:53;1.80;;;1.63;;
18166;SDS011;9208;42.688;23.404;2023-05-18T01:12:20;1.77;;;1.57;;
18166;SDS011;9208;42.688;23.404;2023-05-18T01:14:54;1.80;;;1.70;;
18166;SDS011;9208;42.688;23.404;2023-05-18T01:17:42;1.87;;;1.77;;
18166;SDS011;9208;42.688;23.404;2023-05-18T01:28:20;1.90;;;1.80;;
18166;SDS011;9208;42.688;23.404;2023-05-18T01:30:50;2.40;;;2.20;;
18166;SDS011;9208;42.688;23.404;2023-05-18T01:33:17;2.30;;;2.10;;
18166;SDS011;9208;42.688;23.404;2023-05-18T01:35:42;1.60;;;1.40;;
18166;SDS011;9208;42.688;23.404;2023-05-18T01:38:24;1.27;;;1.17;;
18166;SDS011;9208;42.688;23.404;2023-05-18T01:40:54;1.40;;;1.30;;
18166;SDS011;9208;42.688;23.404;2023-05-18T01:43:33;1.10;;;1.10;;
18166;SDS011;9208;42.688;23.404;2023-05-18T01:49:00;1.50;;;1.10;;
18166;SDS011;9208;42.688;23.404;2023-05-18T01:51:32;1.17;;;0.80;;
18166;SDS011;9208;42.688;23.404;2023-05-18T01:54:05;0.87;;;0.80;;
18166;SDS011;9208;42.688;23.404;2023-05-18T01:56:32;1.63;;;1.20;;
18166;SDS011;9208;42.688;23.404;2023-05-18T01:58:59;1.33;;;1.00;;
18166;SDS011;9208;42.688;23.404;2023-05-18T02:01:25;2.83;;;0.97;;
18166;SDS011;9208;42.688;23.404;2023-05-18T02:03:51;1.20;;;1.10;;
18166;SDS011;9208;42.688;23.404;2023-05-18T02:06:17;1.00;;;1.00;;
18166;SDS011;9208;42.688;23.404;2023-05-18T02:08:42;1.40;;;1.30;;
18166;SDS011;9208;42.688;23.404;2023-05-18T02:11:08;1.80;;;1.30;;
18166;SDS011;9208;42.688;23.404;2023-05-18T02:13:33;1.73;;;1.33;;
18166;SDS011;9208;42.688;23.404;2023-05-18T02:15:59;1.50;;;1.40;;
18166;SDS011;9208;42.688;23.404;2023-05-18T02:18:24;1.33;;;1.30;;
18166;SDS011;9208;42.688;23.404;2023-05-18T02:20:59;1.60;;;1.50;;
18166;SDS011;9208;42.688;23.404;2023-05-18T02:23:24;1.73;;;1.63;;
18166;SDS011;9208;42.688;23.404;2023-05-18T02:25:53;1.57;;;1.47;;
18166;SDS011;9208;42.688;23.404;2023-05-18T02:28:19;2.67;;;1.50;;
18166;SDS011;9208;42.688;23.404;2023-05-18T02:30:45;1.67;;;1.57;;
18166;SDS011;9208;42.688;23.404;2023-05-18T02:33:11;3.60;;;2.23;;
18166;SDS011;9208;42.688;23.404;2023-05-18T02:35:37;1.70;;;1.60;;
18166;SDS011;9208;42.688;23.404;2023-05-18T02:38:02;1.90;;;1.80;;
18166;SDS011;9208;42.688;23.404;2023-05-18T02:40:28;1.90;;;1.80;;
18166;SDS011;9208;42.688;23.404;2023-05-18T02:42:54;1.80;;;1.70;;
18166;SDS011;9208;42.688;23.404;2023-05-18T02:45:19;1.63;;;1.53;;
18166;SDS011;9208;42.688;23.404;2023-05-18T02:47:45;2.00;;;1.80;;
18166;SDS011;9208;42.688;23.404;2023-05-18T02:50:11;2.13;;;1.90;;
18166;SDS011;9208;42.688;23.404;2023-05-18T02:52:37;2.00;;;1.90;;
18166;SDS011;9208;42.688;23.404;2023-05-18T02:55:03;2.43;;;2.23;;
18166;SDS011;9208;42.688;23.404;2023-05-18T02:57:29;2.00;;;1.90;;
18166;SDS011;9208;42.688;23.404;2023-05-18T02:59:56;2.27;;;2.00;;
18166;SDS011;9208;42.688;23.404;2023-05-18T03:02:22;2.43;;;2.23;;
18166;SDS011;9208;42.688;23.404;2023-05-18T03:04:51;2.10;;;1.90;;
18166;SDS011;9208;42.688;23.404;2023-05-18T03:07:21;1.93;;;1.73;;
18166;SDS011;9208;42.688;23.404;2023-05-18T03:09:51;2.57;;;1.60;;
18166;SDS011;9208;42.688;23.404;2023-05-18T03:12:17;4.87;;;1.90;;
18166;SDS011;9208;42.688;23.404;2023-05-18T03:14:42;2.00;;;1.90;;
18166;SDS011;9208;42.688;23.404;2023-05-18T03:17:07;2.30;;;2.10;;
18166;SDS011;9208;42.688;23.404;2023-05-18T03:19:33;2.30;;;1.90;;
18166;SDS011;9208;42.688;23.404;2023-05-18T03:22:01;2.10;;;2.00;;
18166;SDS011;9208;42.688;23.404;2023-05-18T03:24:28;2.03;;;1.83;;
18166;SDS011;9208;42.688;23.404;2023-05-18T03:26:54;2.20;;;2.00;;
18166;SDS011;9208;42.688;23.404;2023-05-18T03:29:21;2.50;;;2.17;;
18166;SDS011;9208;42.688;23.404;2023-05-18T03:31:47;2.03;;;1.83;;
18166;SDS011;9208;42.688;23.404;2023-05-18T03:34:12;2.00;;;1.80;;
18166;SDS011;9208;42.688;23.404;2023-05-18T03:36:38;1.50;;;1.40;;
18166;SDS011;9208;42.688;23.404;2023-05-18T03:39:04;1.80;;;1.70;;
18166;SDS011;9208;42.688;23.404;2023-05-18T03:41:33;2.10;;;1.97;;
18166;SDS011;9208;42.688;23.404;2023-05-18T03:43:59;1.97;;;1.83;;
18166;SDS011;9208;42.688;23.404;2023-05-18T03:46:27;2.00;;;1.80;;
18166;SDS011;9208;42.688;23.404;2023-05-18T03:48:52;2.20;;;2.00;;
18166;SDS011;9208;42.688;23.404;2023-05-18T03:51:18;1.90;;;1.80;;
18166;SDS011;9208;42.688;23.404;2023-05-18T03:53:44;2.23;;;2.03;;
18166;SDS011;9208;42.688;23.404;2023-05-18T03:56:11;2.30;;;2.10;;
18166;SDS011;9208;42.688;23.404;2023-05-18T03:58:37;2.40;;;2.20;;
18166;SDS011;9208;42.688;23.404;2023-05-18T04:01:03;3.43;;;2.33;;
18166;SDS011;9208;42.688;23.404;2023-05-18T04:03:29;2.50;;;2.40;;
18166;SDS011;9208;42.688;23.404;2023-05-18T04:05:55;2.90;;;2.57;;
18166;SDS011;9208;42.688;23.404;2023-05-18T04:08:20;3.23;;;2.93;;
18166;SDS011;9208;42.688;23.404;2023-05-18T04:10:49;3.30;;;2.37;;
18166;SDS011;9208;42.688;23.404;2023-05-18T04:13:15;2.97;;;2.43;;
18166;SDS011;9208;42.688;23.404;2023-05-18T04:15:41;2.57;;;2.37;;
18166;SDS011;9208;42.688;23.404;2023-05-18T04:18:07;2.83;;;2.63;;
18166;SDS011;9208;42.688;23.404;2023-05-18T04:20:34;2.73;;;2.53;;
18166;SDS011;9208;42.688;23.404;2023-05-18T04:23:02;4.13;;;3.00;;
18166;SDS011;9208;42.688;23.404;2023-05-18T04:25:27;3.10;;;2.80;;
18166;SDS011;9208;42.688;23.404;2023-05-18T04:27:53;2.60;;;2.40;;
18166;SDS011;9208;42.688;23.404;2023-05-18T04:30:20;3.50;;;2.90;;
18166;SDS011;9208;42.688;23.404;2023-05-18T04:32:48;4.33;;;3.03;;
18166;SDS011;9208;42.688;23.404;2023-05-18T04:35:15;3.63;;;3.33;;
18166;SDS011;9208;42.688;23.404;2023-05-18T04:37:40;4.10;;;3.70;;
18166;SDS011;9208;42.688;23.404;2023-05-18T04:40:07;3.80;;;3.50;;
18166;SDS011;9208;42.688;23.404;2023-05-18T04:42:36;5.17;;;4.70;;
18166;SDS011;9208;42.688;23.404;2023-05-18T04:45:02;4.47;;;4.07;;
18166;SDS011;9208;42.688;23.404;2023-05-18T04:47:30;6.00;;;4.80;;
18166;SDS011;9208;42.688;23.404;2023-05-18T04:49:56;5.30;;;4.40;;
18166;SDS011;9208;42.688;23.404;2023-05-18T04:52:22;5.33;;;4.83;;
18166;SDS011;9208;42.688;23.404;2023-05-18T04:54:47;7.37;;;4.83;;
18166;SDS011;9208;42.688;23.404;2023-05-18T04:57:12;5.63;;;4.50;;
18166;SDS011;9208;42.688;23.404;2023-05-18T04:59:39;5.40;;;4.87;;
18166;SDS011;9208;42.688;23.404;2023-05-18T05:02:05;4.80;;;4.50;;
18166;SDS011;9208;42.688;23.404;2023-05-18T05:04:31;4.80;;;4.40;;
18166;SDS011;9208;42.688;23.404;2023-05-18T05:06:56;5.13;;;4.17;;
18166;SDS011;9208;42.688;23.404;2023-05-18T05:09:22;4.77;;;4.33;;
18166;SDS011;9208;42.688;23.404;2023-05-18T05:11:47;4.13;;;3.70;;
18166;SDS011;9208;42.688;23.404;2023-05-18T05:14:12;4.00;;;3.70;;
18166;SDS011;9208;42.688;23.404;2023-05-18T05:16:39;3.87;;;3.57;;
18166;SDS011;9208;42.688;23.404;2023-05-18T05:19:04;4.63;;;3.67;;
18166;SDS011;9208;42.688;23.404;2023-05-18T05:21:30;4.10;;;3.80;;
18166;SDS011;9208;42.688;23.404;2023-05-18T05:23:56;6.13;;;3.80;;
18166;SDS011;9208;42.688;23.404;2023-05-18T05:26:22;3.80;;;3.50;;
18166;SDS011;9208;42.688;23.404;2023-05-18T05:28:47;3.80;;;3.40;;
18166;SDS011;9208;42.688;23.404;2023-05-18T05:31:12;4.03;;;2.97;;
18166;SDS011;9208;42.688;23.404;2023-05-18T05:33:38;3.23;;;3.03;;
18166;SDS011;9208;42.688;23.404;2023-05-18T05:36:04;3.30;;;3.10;;
18166;SDS011;9208;42.688;23.404;2023-05-18T05:38:30;3.57;;;3.27;;
18166;SDS011;9208;42.688;23.404;2023-05-18T05:40:56;4.30;;;4.00;;
18166;SDS011;9208;42.688;23.404;2023-05-18T05:43:21;4.13;;;3.73;;
18166;SDS011;9208;42.688;23.404;2023-05-18T05:45:47;4.13;;;3.83;;
18166;SDS011;9208;42.688;23.404;2023-05-18T05:48:12;4.50;;;3.27;;
18166;SDS011;9208;42.688;23.404;2023-05-18T05:50:38;3.73;;;3.20;;
18166;SDS011;9208;42.688;23.404;2023-05-18T05:53:03;3.67;;;3.03;;
18166;SDS011;9208;42.688;23.404;2023-05-18T05:55:28;3.40;;;3.10;;
18166;SDS011;9208;42.688;23.404;2023-05-18T05:57:54;3.77;;;3.27;;
18166;SDS011;9208;42.688;23.404;2023-05-18T06:00:19;3.43;;;2.90;;
18166;SDS011;9208;42.688;23.404;2023-05-18T06:02:48;3.73;;;3.37;;
18166;SDS011;9208;42.688;23.404;2023-05-18T06:05:14;3.97;;;3.57;;
18166;SDS011;9208;42.688;23.404;2023-05-18T06:07:39;4.37;;;3.10;;
18166;SDS011;9208;42.688;23.404;2023-05-18T06:10:05;3.53;;;3.23;;
18166;SDS011;9208;42.688;23.404;2023-05-18T06:12:31;3.27;;;2.67;;
18166;SDS011;9208;42.688;23.404;2023-05-18T06:14:56;13.47;;;4.00;;
18166;SDS011;9208;42.688;23.404;2023-05-18T06:17:25;3.13;;;2.93;;
18166;SDS011;9208;42.688;23.404;2023-05-18T06:19:51;4.13;;;3.70;;
18166;SDS011;9208;42.688;23.404;2023-05-18T06:22:17;4.00;;;3.60;;
18166;SDS011;9208;42.688;23.404;2023-05-18T06:24:43;4.17;;;3.77;;
18166;SDS011;9208;42.688;23.404;2023-05-18T06:27:08;3.90;;;3.60;;
18166;SDS011;9208;42.688;23.404;2023-05-18T06:29:34;5.10;;;3.80;;
18166;SDS011;9208;42.688;23.404;2023-05-18T06:31:59;4.50;;;4.10;;
18166;SDS011;9208;42.688;23.404;2023-05-18T06:34:25;5.80;;;4.10;;
18166;SDS011;9208;42.688;23.404;2023-05-18T06:36:50;5.30;;;4.17;;
18166;SDS011;9208;42.688;23.404;2023-05-18T06:39:16;6.87;;;4.60;;
18166;SDS011;9208;42.688;23.404;2023-05-18T06:41:41;5.90;;;4.60;;
18166;SDS011;9208;42.688;23.404;2023-05-18T06:44:09;9.30;;;4.93;;
18166;SDS011;9208;42.688;23.404;2023-05-18T06:46:35;6.20;;;4.40;;
18166;SDS011;9208;42.688;23.404;2023-05-18T06:49:00;5.60;;;4.13;;
18166;SDS011;9208;42.688;23.404;2023-05-18T06:51:26;5.17;;;4.63;;
18166;SDS011;9208;42.688;23.404;2023-05-18T06:53:52;6.53;;;4.67;;
18166;SDS011;9208;42.688;23.404;2023-05-18T06:56:17;5.37;;;3.87;;
18166;SDS011;9208;42.688;23.404;2023-05-18T06:58:43;3.97;;;3.60;;
18166;SDS011;9208;42.688;23.404;2023-05-18T07:01:09;3.97;;;3.67;;
18166;SDS011;9208;42.688;23.404;2023-05-18T07:03:35;3.77;;;3.47;;
18166;SDS011;9208;42.688;23.404;2023-05-18T07:06:01;4.93;;;3.43;;
18166;SDS011;9208;42.688;23.404;2023-05-18T07:08:28;4.30;;;3.90;;
18166;SDS011;9208;42.688;23.404;2023-05-18T07:10:54;5.63;;;4.77;;
18166;SDS011;9208;42.688;23.404;2023-05-18T07:13:22;9.00;;;4.53;;
18166;SDS011;9208;42.688;23.404;2023-05-18T07:15:48;6.33;;;4.90;;
18166;SDS011;9208;42.688;23.404;2023-05-18T07:18:13;6.70;;;4.90;;
18166;SDS011;9208;42.688;23.404;2023-05-18T07:20:39;6.47;;;5.10;;
18166;SDS011;9208;42.688;23.404;2023-05-18T07:23:04;7.33;;;5.80;;
18166;SDS011;9208;42.688;23.404;2023-05-18T07:25:30;8.30;;;6.20;;
18166;SDS011;9208;42.688;23.404;2023-05-18T07:27:55;10.20;;;6.70;;
18166;SDS011;9208;42.688;23.404;2023-05-18T07:30:21;7.00;;;6.30;;
18166;SDS011;9208;42.688;23.404;2023-05-18T07:32:47;6.47;;;5.87;;
18166;SDS011;9208;42.688;23.404;2023-05-18T07:35:13;8.00;;;6.17;;
18166;SDS011;9208;42.688;23.404;2023-05-18T07:37:40;7.40;;;6.70;;
18166;SDS011;9208;42.688;23.404;2023-05-18T07:40:06;8.10;;;6.03;;
18166;SDS011;9208;42.688;23.404;2023-05-18T07:42:33;8.67;;;7.00;;
18166;SDS011;9208;42.688;23.404;2023-05-18T07:44:59;7.20;;;6.50;;
18166;SDS011;9208;42.688;23.404;2023-05-18T07:47:24;7.00;;;6.40;;
18166;SDS011;9208;42.688;23.404;2023-05-18T07:49:53;7.13;;;6.47;;
18166;SDS011;9208;42.688;23.404;2023-05-18T07:52:18;7.40;;;6.70;;
18166;SDS011;9208;42.688;23.404;2023-05-18T07:54:44;7.20;;;6.50;;
18166;SDS011;9208;42.688;23.404;2023-05-18T07:57:09;9.13;;;6.63;;
18166;SDS011;9208;42.688;23.404;2023-05-18T07:59:34;12.30;;;5.87;;
18166;SDS011;9208;42.688;23.404;2023-05-18T08:02:00;6.63;;;6.13;;
18166;SDS011;9208;42.688;23.404;2023-05-18T08:04:26;6.90;;;5.50;;
18166;SDS011;9208;42.688;23.404;2023-05-18T08:06:55;6.33;;;5.77;;
18166;SDS011;9208;42.688;23.404;2023-05-18T08:09:24;6.97;;;6.27;;
18166;SDS011;9208;42.688;23.404;2023-05-18T08:11:50;6.23;;;5.63;;
18166;SDS011;9208;42.688;23.404;2023-05-18T08:14:16;7.30;;;5.73;;
18166;SDS011;9208;42.688;23.404;2023-05-18T08:16:41;6.50;;;5.80;;
18166;SDS011;9208;42.688;23.404;2023-05-18T08:19:06;8.80;;;5.80;;
18166;SDS011;9208;42.688;23.404;2023-05-18T08:21:32;6.80;;;5.40;;
18166;SDS011;9208;42.688;23.404;2023-05-18T08:23:58;8.00;;;5.63;;
18166;SDS011;9208;42.688;23.404;2023-05-18T08:26:24;5.63;;;5.20;;
18166;SDS011;9208;42.688;23.404;2023-05-18T08:28:50;5.80;;;5.20;;
18166;SDS011;9208;42.688;23.404;2023-05-18T08:31:16;5.97;;;5.37;;
18166;SDS011;9208;42.688;23.404;2023-05-18T08:33:41;6.37;;;4.97;;
18166;SDS011;9208;42.688;23.404;2023-05-18T08:36:07;5.77;;;5.10;;
18166;SDS011;9208;42.688;23.404;2023-05-18T08:38:33;7.00;;;4.77;;
18166;SDS011;9208;42.688;23.404;2023-05-18T08:43:58;9.00;;;5.30;;
18166;SDS011;9208;42.688;23.404;2023-05-18T08:46:31;7.00;;;4.80;;
18166;SDS011;9208;42.688;23.404;2023-05-18T08:49:04;5.83;;;5.33;;
18166;SDS011;9208;42.688;23.404;2023-05-18T08:51:32;5.37;;;4.47;;
18166;SDS011;9208;42.688;23.404;2023-05-18T08:53:58;6.43;;;4.53;;
18166;SDS011;9208;42.688;23.404;2023-05-18T08:56:25;6.53;;;4.90;;
18166;SDS011;9208;42.688;23.404;2023-05-18T08:58:51;6.37;;;4.67;;
18166;SDS011;9208;42.688;23.404;2023-05-18T09:01:19;5.57;;;4.80;;
18166;SDS011;9208;42.688;23.404;2023-05-18T09:03:46;6.93;;;4.87;;
18166;SDS011;9208;42.688;23.404;2023-05-18T09:06:15;6.27;;;4.90;;
18166;SDS011;9208;42.688;23.404;2023-05-18T09:08:41;5.17;;;4.67;;
18166;SDS011;9208;42.688;23.404;2023-05-18T09:11:07;6.47;;;4.70;;
18166;SDS011;9208;42.688;23.404;2023-05-18T09:13:32;5.00;;;4.60;;
18166;SDS011;9208;42.688;23.404;2023-05-18T09:15:58;6.87;;;4.67;;
18166;SDS011;9208;42.688;23.404;2023-05-18T09:18:23;7.30;;;5.00;;
18166;SDS011;9208;42.688;23.404;2023-05-18T09:20:49;6.30;;;4.90;;
18166;SDS011;9208;42.688;23.404;2023-05-18T09:23:14;7.77;;;5.13;;
18166;SDS011;9208;42.688;23.404;2023-05-18T09:25:42;5.00;;;4.47;;
18166;SDS011;9208;42.688;23.404;2023-05-18T09:28:12;5.13;;;4.37;;
18166;SDS011;9208;42.688;23.404;2023-05-18T09:30:39;5.37;;;4.63;;
18166;SDS011;9208;42.688;23.404;2023-05-18T09:33:16;4.90;;;4.53;;
18166;SDS011;9208;42.688;23.404;2023-05-18T09:35:43;7.30;;;4.43;;
18166;SDS011;9208;42.688;23.404;2023-05-18T09:38:10;5.83;;;4.37;;
18166;SDS011;9208;42.688;23.404;2023-05-18T09:40:37;8.20;;;4.67;;
18166;SDS011;9208;42.688;23.404;2023-05-18T09:43:08;4.90;;;4.40;;
18166;SDS011;9208;42.688;23.404;2023-05-18T09:45:33;13.37;;;5.50;;
18166;SDS011;9208;42.688;23.404;2023-05-18T09:48:06;9.47;;;4.77;;
18166;SDS011;9208;42.688;23.404;2023-05-18T09:50:31;4.93;;;4.47;;
18166;SDS011;9208;42.688;23.404;2023-05-18T09:52:58;5.33;;;4.80;;
18166;SDS011;9208;42.688;23.404;2023-05-18T09:55:24;5.87;;;4.50;;
18166;SDS011;9208;42.688;23.404;2023-05-18T09:57:50;10.70;;;5.13;;
18166;SDS011;9208;42.688;23.404;2023-05-18T10:00:16;7.73;;;5.13;;
18166;SDS011;9208;42.688;23.404;2023-05-18T10:02:44;20.27;;;5.83;;
18166;SDS011;9208;42.688;23.404;2023-05-18T10:05:25;16.10;;;6.93;;
18166;SDS011;9208;42.688;23.404;2023-05-18T10:07:58;9.37;;;5.30;;
18166;SDS011;9208;42.688;23.404;2023-05-18T10:10:25;7.77;;;5.00;;
18166;SDS011;9208;42.688;23.404;2023-05-18T10:12:52;8.87;;;4.70;;
18166;SDS011;9208;42.688;23.404;2023-05-18T10:15:20;7.13;;;5.13;;
18166;SDS011;9208;42.688;23.404;2023-05-18T10:17:47;14.23;;;4.80;;
18166;SDS011;9208;42.688;23.404;2023-05-18T10:20:16;7.77;;;5.93;;
18166;SDS011;9208;42.688;23.404;2023-05-18T10:22:44;5.30;;;4.50;;
18166;SDS011;9208;42.688;23.404;2023-05-18T10:25:10;5.23;;;3.90;;
18166;SDS011;9208;42.688;23.404;2023-05-18T10:27:47;9.23;;;5.50;;
18166;SDS011;9208;42.688;23.404;2023-05-18T10:30:14;5.07;;;4.40;;
18166;SDS011;9208;42.688;23.404;2023-05-18T10:32:41;5.37;;;4.63;;
18166;SDS011;9208;42.688;23.404;2023-05-18T10:35:07;7.77;;;4.10;;
18166;SDS011;9208;42.688;23.404;2023-05-18T10:37:34;6.17;;;4.63;;
18166;SDS011;9208;42.688;23.404;2023-05-18T10:40:03;7.33;;;4.87;;
18166;SDS011;9208;42.688;23.404;2023-05-18T10:42:31;9.63;;;4.73;;
18166;SDS011;9208;42.688;23.404;2023-05-18T10:44:57;9.53;;;5.30;;
18166;SDS011;9208;42.688;23.404;2023-05-18T10:47:28;7.67;;;4.27;;
18166;SDS011;9208;42.688;23.404;2023-05-18T10:49:56;11.27;;;5.40;;
18166;SDS011;9208;42.688;23.404;2023-05-18T10:52:25;15.03;;;5.67;;
18166;SDS011;9208;42.688;23.404;2023-05-18T10:54:57;12.93;;;5.57;;
18166;SDS011;9208;42.688;23.404;2023-05-18T10:57:27;13.03;;;5.60;;
18166;SDS011;9208;42.688;23.404;2023-05-18T10:59:58;10.73;;;5.80;;
18166;SDS011;9208;42.688;23.404;2023-05-18T11:02:24;6.10;;;5.50;;
18166;SDS011;9208;42.688;23.404;2023-05-18T11:04:51;17.37;;;5.93;;
18166;SDS011;9208;42.688;23.404;2023-05-18T11:07:17;10.70;;;5.83;;
18166;SDS011;9208;42.688;23.404;2023-05-18T11:09:46;7.73;;;5.03;;
18166;SDS011;9208;42.688;23.404;2023-05-18T11:12:13;5.63;;;5.00;;
18166;SDS011;9208;42.688;23.404;2023-05-18T11:14:49;5.63;;;4.43;;
18166;SDS011;9208;42.688;23.404;2023-05-18T11:17:22;10.50;;;4.70;;
18166;SDS011;9208;42.688;23.404;2023-05-18T11:23:30;4.70;;;3.10;;
18166;SDS011;9208;42.688;23.404;2023-05-18T11:27:53;9.33;;;3.70;;
18166;SDS011;9208;42.688;23.404;2023-05-18T11:33:09;5.87;;;3.80;;
18166;SDS011;9208;42.688;23.404;2023-05-18T11:38:52;8.23;;;3.97;;
18166;SDS011;9208;42.688;23.404;2023-05-18T11:41:35;3.60;;;3.30;;
18166;SDS011;9208;42.688;23.404;2023-05-18T11:46:36;3.57;;;3.10;;
18166;SDS011;9208;42.688;23.404;2023-05-18T11:49:08;5.30;;;3.10;;
18166;SDS011;9208;42.688;23.404;2023-05-18T11:54:24;6.90;;;3.13;;
18166;SDS011;9208;42.688;23.404;2023-05-18T11:56:53;7.33;;;3.37;;
18166;SDS011;9208;42.688;23.404;2023-05-18T12:02:05;3.63;;;3.33;;
18166;SDS011;9208;42.688;23.404;2023-05-18T12:04:31;14.80;;;13.13;;
18166;SDS011;9208;42.688;23.404;2023-05-18T12:06:58;6.07;;;3.90;;
18166;SDS011;9208;42.688;23.404;2023-05-18T12:09:29;10.60;;;7.70;;
18166;SDS011;9208;42.688;23.404;2023-05-18T12:11:56;7.60;;;4.37;;
18166;SDS011;9208;42.688;23.404;2023-05-18T12:14:21;4.70;;;4.30;;
18166;SDS011;9208;42.688;23.404;2023-05-18T12:16:48;8.10;;;4.50;;
18166;SDS011;9208;42.688;23.404;2023-05-18T12:19:14;5.33;;;4.83;;
18166;SDS011;9208;42.688;23.404;2023-05-18T12:21:42;6.10;;;5.33;;
18166;SDS011;9208;42.688;23.404;2023-05-18T12:24:07;21.47;;;18.50;;
18166;SDS011;9208;42.688;23.404;2023-05-18T12:26:33;8.13;;;7.43;;
18166;SDS011;9208;42.688;23.404;2023-05-18T12:28:59;8.53;;;6.53;;
18166;SDS011;9208;42.688;23.404;2023-05-18T12:31:24;9.50;;;7.70;;
18166;SDS011;9208;42.688;23.404;2023-05-18T12:33:50;6.13;;;4.87;;
18166;SDS011;9208;42.688;23.404;2023-05-18T12:36:18;10.07;;;4.93;;
18166;SDS011;9208;42.688;23.404;2023-05-18T12:38:46;7.23;;;4.97;;
18166;SDS011;9208;42.688;23.404;2023-05-18T12:41:22;10.80;;;9.43;;
18166;SDS011;9208;42.688;23.404;2023-05-18T12:43:48;24.20;;;21.70;;
18166;SDS011;9208;42.688;23.404;2023-05-18T12:46:13;19.50;;;16.97;;
18166;SDS011;9208;42.688;23.404;2023-05-18T12:48:43;16.37;;;14.57;;
18166;SDS011;9208;42.688;23.404;2023-05-18T12:51:20;14.40;;;12.30;;
18166;SDS011;9208;42.688;23.404;2023-05-18T12:53:47;9.57;;;7.27;;
18166;SDS011;9208;42.688;23.404;2023-05-18T12:56:14;12.37;;;7.53;;
18166;SDS011;9208;42.688;23.404;2023-05-18T12:58:39;12.43;;;8.47;;
18166;SDS011;9208;42.688;23.404;2023-05-18T13:01:09;5.10;;;4.30;;
18166;SDS011;9208;42.688;23.404;2023-05-18T13:03:38;7.37;;;4.53;;
18166;SDS011;9208;42.688;23.404;2023-05-18T13:06:05;5.33;;;3.60;;
18166;SDS011;9208;42.688;23.404;2023-05-18T13:08:32;6.00;;;3.83;;
18166;SDS011;9208;42.688;23.404;2023-05-18T13:11:02;6.60;;;5.73;;
18166;SDS011;9208;42.688;23.404;2023-05-18T13:13:28;5.83;;;5.00;;
18166;SDS011;9208;42.688;23.404;2023-05-18T13:15:54;4.47;;;4.03;;
18166;SDS011;9208;42.688;23.404;2023-05-18T13:18:23;7.03;;;4.33;;
18166;SDS011;9208;42.688;23.404;2023-05-18T13:20:50;6.13;;;4.73;;
18166;SDS011;9208;42.688;23.404;2023-05-18T13:23:19;6.33;;;4.83;;
18166;SDS011;9208;42.688;23.404;2023-05-18T13:25:47;5.63;;;4.60;;
18166;SDS011;9208;42.688;23.404;2023-05-18T13:28:14;10.17;;;5.17;;
18166;SDS011;9208;42.688;23.404;2023-05-18T13:30:41;8.00;;;5.73;;
18166;SDS011;9208;42.688;23.404;2023-05-18T13:33:07;5.73;;;4.77;;
18166;SDS011;9208;42.688;23.404;2023-05-18T13:35:33;5.20;;;4.67;;
18166;SDS011;9208;42.688;23.404;2023-05-18T13:37:59;5.40;;;4.40;;
18166;SDS011;9208;42.688;23.404;2023-05-18T13:40:29;7.63;;;5.50;;
18166;SDS011;9208;42.688;23.404;2023-05-18T13:42:55;9.33;;;6.57;;
18166;SDS011;9208;42.688;23.404;2023-05-18T13:45:20;9.67;;;6.83;;
18166;SDS011;9208;42.688;23.404;2023-05-18T13:47:46;6.87;;;6.23;;
18166;SDS011;9208;42.688;23.404;2023-05-18T13:50:14;9.47;;;7.07;;
18166;SDS011;9208;42.688;23.404;2023-05-18T13:52:40;9.80;;;7.17;;
18166;SDS011;9208;42.688;23.404;2023-05-18T13:55:06;12.57;;;7.50;;
18166;SDS011;9208;42.688;23.404;2023-05-18T13:57:32;9.60;;;6.80;;
18166;SDS011;9208;42.688;23.404;2023-05-18T13:59:58;14.03;;;7.10;;
18166;SDS011;9208;42.688;23.404;2023-05-18T14:02:26;8.43;;;6.53;;
18166;SDS011;9208;42.688;23.404;2023-05-18T14:04:52;8.03;;;6.63;;
18166;SDS011;9208;42.688;23.404;2023-05-18T14:07:17;8.30;;;6.57;;
18166;SDS011;9208;42.688;23.404;2023-05-18T14:09:43;9.60;;;6.90;;
18166;SDS011;9208;42.688;23.404;2023-05-18T14:12:08;8.87;;;7.87;;
18166;SDS011;9208;42.688;23.404;2023-05-18T14:14:38;9.23;;;7.73;;
18166;SDS011;9208;42.688;23.404;2023-05-18T14:17:05;10.17;;;6.90;;
18166;SDS011;9208;42.688;23.404;2023-05-18T14:19:30;13.13;;;7.03;;
18166;SDS011;9208;42.688;23.404;2023-05-18T14:21:56;7.43;;;6.67;;
18166;SDS011;9208;42.688;23.404;2023-05-18T14:24:21;6.83;;;6.20;;
18166;SDS011;9208;42.688;23.404;2023-05-18T14:26:47;8.03;;;7.07;;
18166;SDS011;9208;42.688;23.404;2023-05-18T14:29:12;9.20;;;7.33;;
18166;SDS011;9208;42.688;23.404;2023-05-18T14:31:38;8.43;;;7.20;;
18166;SDS011;9208;42.688;23.404;2023-05-18T14:34:03;7.47;;;6.53;;
18166;SDS011;9208;42.688;23.404;2023-05-18T14:36:28;7.40;;;5.83;;
18166;SDS011;9208;42.688;23.404;2023-05-18T14:38:54;6.43;;;5.30;;
18166;SDS011;9208;42.688;23.404;2023-05-18T14:41:20;8.50;;;5.13;;
18166;SDS011;9208;42.688;23.404;2023-05-18T14:43:49;8.27;;;6.00;;
18166;SDS011;9208;42.688;23.404;2023-05-18T14:46:15;9.33;;;5.20;;
18166;SDS011;9208;42.688;23.404;2023-05-18T14:48:40;5.90;;;4.50;;
18166;SDS011;9208;42.688;23.404;2023-05-18T14:51:06;6.83;;;5.90;;
18166;SDS011;9208;42.688;23.404;2023-05-18T14:53:31;6.00;;;5.33;;
18166;SDS011;9208;42.688;23.404;2023-05-18T14:55:57;5.10;;;4.60;;
18166;SDS011;9208;42.688;23.404;2023-05-18T14:58:23;5.33;;;4.60;;
18166;SDS011;9208;42.688;23.404;2023-05-18T15:00:48;6.90;;;4.20;;
18166;SDS011;9208;42.688;23.404;2023-05-18T15:03:14;8.20;;;5.77;;
18166;SDS011;9208;42.688;23.404;2023-05-18T15:05:39;4.17;;;3.77;;
18166;SDS011;9208;42.688;23.404;2023-05-18T15:08:05;5.57;;;3.97;;
18166;SDS011;9208;42.688;23.404;2023-05-18T15:10:30;4.20;;;3.80;;
18166;SDS011;9208;42.688;23.404;2023-05-18T15:12:56;4.07;;;3.67;;
18166;SDS011;9208;42.688;23.404;2023-05-18T15:15:21;3.80;;;3.40;;
18166;SDS011;9208;42.688;23.404;2023-05-18T15:17:47;4.10;;;3.57;;